sensor_id;sensor_type;location;lat;lon;timestamp;P1;durP1;ratioP1;P2;durP2;ratioP2
23563;SDS011;11960;45.444;11.078;2022-08-01T16:56:48;5.00;;;4.00;;
23563;SDS011;11960;45.444;11.078;2022-08-01T16:58:53;5.80;;;5.80;;
23563;SDS011;11960;45.444;11.078;2022-08-01T17:00:55;5.80;;;5.80;;
23563;SDS011;11960;45.444;11.078;2022-08-01T17:03:18;4.75;;;3.75;;
23563;SDS011;11960;45.444;11.078;2022-08-01T17:05:42;5.75;;;5.75;;
23563;SDS011;11960;45.444;11.078;2022-08-01T17:07:45;4.75;;;4.75;;
23563;SDS011;11960;45.444;11.078;2022-08-01T17:09:48;5.75;;;5.75;;
23563;SDS011;11960;45.444;11.078;2022-08-01T17:11:50;4.00;;;4.00;;
23563;SDS011;11960;45.444;11.078;2022-08-01T17:13:53;5.00;;;5.00;;
23563;SDS011;11960;45.444;11.078;2022-08-01T17:15:55;4.00;;;4.00;;
23563;SDS011;11960;45.444;11.078;2022-08-01T17:17:59;4.00;;;4.00;;
23563;SDS011;11960;45.444;11.078;2022-08-01T17:20:02;5.20;;;5.00;;
23563;SDS011;11960;45.444;11.078;2022-08-01T17:22:05;5.25;;;4.75;;
23563;SDS011;11960;45.444;11.078;2022-08-01T17:24:08;5.00;;;5.00;;
23563;SDS011;11960;45.444;11.078;2022-08-01T17:26:18;5.60;;;5.60;;
23563;SDS011;11960;45.444;11.078;2022-08-01T17:28:27;4.00;;;4.00;;
23563;SDS011;11960;45.444;11.078;2022-08-01T17:30:33;4.00;;;4.00;;
23563;SDS011;11960;45.444;11.078;2022-08-01T17:32:46;5.00;;;5.00;;
23563;SDS011;11960;45.444;11.078;2022-08-01T17:34:49;4.00;;;4.00;;
23563;SDS011;11960;45.444;11.078;2022-08-01T17:36:59;3.00;;;3.00;;
23563;SDS011;11960;45.444;11.078;2022-08-01T17:39:04;5.00;;;5.00;;
23563;SDS011;11960;45.444;11.078;2022-08-01T17:41:16;5.00;;;5.00;;
23563;SDS011;11960;45.444;11.078;2022-08-01T17:43:18;3.00;;;3.00;;
23563;SDS011;11960;45.444;11.078;2022-08-01T17:47:52;4.00;;;4.00;;
23563;SDS011;11960;45.444;11.078;2022-08-01T17:49:57;3.75;;;3.75;;
23563;SDS011;11960;45.444;11.078;2022-08-01T17:52:03;4.75;;;4.75;;
23563;SDS011;11960;45.444;11.078;2022-08-01T17:54:06;4.00;;;4.00;;
23563;SDS011;11960;45.444;11.078;2022-08-01T17:56:08;2.80;;;2.80;;
23563;SDS011;11960;45.444;11.078;2022-08-01T18:00:57;4.00;;;4.00;;
23563;SDS011;11960;45.444;11.078;2022-08-01T18:03:04;4.00;;;4.00;;
23563;SDS011;11960;45.444;11.078;2022-08-01T18:05:09;7.00;;;7.00;;
23563;SDS011;11960;45.444;11.078;2022-08-01T18:07:11;6.00;;;5.00;;
23563;SDS011;11960;45.444;11.078;2022-08-01T18:09:17;3.00;;;3.00;;
23563;SDS011;11960;45.444;11.078;2022-08-01T18:11:21;5.00;;;5.00;;
23563;SDS011;11960;45.444;11.078;2022-08-01T18:13:26;5.00;;;5.00;;
23563;SDS011;11960;45.444;11.078;2022-08-01T18:17:44;3.00;;;3.00;;
23563;SDS011;11960;45.444;11.078;2022-08-01T18:19:47;3.20;;;3.20;;
23563;SDS011;11960;45.444;11.078;2022-08-01T18:21:50;5.20;;;5.20;;
23563;SDS011;11960;45.444;11.078;2022-08-01T18:23:52;4.50;;;4.50;;
23563;SDS011;11960;45.444;11.078;2022-08-01T18:25:55;3.00;;;3.00;;
23563;SDS011;11960;45.444;11.078;2022-08-01T18:28:02;4.25;;;3.75;;
23563;SDS011;11960;45.444;11.078;2022-08-01T18:30:26;3.00;;;3.00;;
23563;SDS011;11960;45.444;11.078;2022-08-01T18:32:29;3.25;;;3.25;;
23563;SDS011;11960;45.444;11.078;2022-08-01T18:34:32;4.00;;;4.00;;
23563;SDS011;11960;45.444;11.078;2022-08-01T18:36:34;5.00;;;5.00;;
23563;SDS011;11960;45.444;11.078;2022-08-01T18:41:12;19.00;;;19.00;;
23563;SDS011;11960;45.444;11.078;2022-08-01T18:45:42;36.50;;;32.00;;
23563;SDS011;11960;45.444;11.078;2022-08-01T18:47:45;22.75;;;22.00;;
23563;SDS011;11960;45.444;11.078;2022-08-01T18:49:49;7.80;;;7.80;;
23563;SDS011;11960;45.444;11.078;2022-08-01T18:51:51;6.00;;;6.00;;
23563;SDS011;11960;45.444;11.078;2022-08-01T18:53:55;5.00;;;5.00;;
23563;SDS011;11960;45.444;11.078;2022-08-01T18:55:59;4.00;;;4.00;;
23563;SDS011;11960;45.444;11.078;2022-08-01T18:58:09;5.00;;;5.00;;
23563;SDS011;11960;45.444;11.078;2022-08-01T19:00:14;4.00;;;4.00;;
23563;SDS011;11960;45.444;11.078;2022-08-01T19:02:17;4.00;;;4.00;;
23563;SDS011;11960;45.444;11.078;2022-08-01T19:04:19;4.00;;;4.00;;
23563;SDS011;11960;45.444;11.078;2022-08-01T19:06:22;7.60;;;6.20;;
23563;SDS011;11960;45.444;11.078;2022-08-01T19:08:25;4.00;;;4.00;;
23563;SDS011;11960;45.444;11.078;2022-08-01T19:10:28;4.20;;;4.20;;
23563;SDS011;11960;45.444;11.078;2022-08-01T19:12:33;6.00;;;6.00;;
23563;SDS011;11960;45.444;11.078;2022-08-01T19:14:36;3.80;;;3.80;;
23563;SDS011;11960;45.444;11.078;2022-08-01T19:16:39;6.25;;;6.00;;
23563;SDS011;11960;45.444;11.078;2022-08-01T19:18:42;5.67;;;5.67;;
23563;SDS011;11960;45.444;11.078;2022-08-01T19:20:47;8.00;;;6.80;;
23563;SDS011;11960;45.444;11.078;2022-08-01T19:22:54;4.33;;;4.33;;
23563;SDS011;11960;45.444;11.078;2022-08-01T19:25:02;4.40;;;4.00;;
23563;SDS011;11960;45.444;11.078;2022-08-01T19:27:09;5.00;;;4.00;;
23563;SDS011;11960;45.444;11.078;2022-08-01T19:34:25;3.00;;;3.00;;
23563;SDS011;11960;45.444;11.078;2022-08-01T19:36:30;4.00;;;4.00;;
23563;SDS011;11960;45.444;11.078;2022-08-01T19:38:34;4.25;;;4.25;;
23563;SDS011;11960;45.444;11.078;2022-08-01T19:40:37;2.00;;;2.00;;
23563;SDS011;11960;45.444;11.078;2022-08-01T19:42:49;3.00;;;3.00;;
23563;SDS011;11960;45.444;11.078;2022-08-01T19:44:52;4.00;;;3.25;;
23563;SDS011;11960;45.444;11.078;2022-08-01T19:46:56;3.00;;;3.00;;
23563;SDS011;11960;45.444;11.078;2022-08-01T19:48:58;3.50;;;3.50;;
23563;SDS011;11960;45.444;11.078;2022-08-01T19:51:01;4.00;;;4.00;;
23563;SDS011;11960;45.444;11.078;2022-08-01T19:53:06;4.00;;;4.00;;
23563;SDS011;11960;45.444;11.078;2022-08-01T19:55:24;4.40;;;4.40;;
23563;SDS011;11960;45.444;11.078;2022-08-01T19:57:29;4.00;;;4.00;;
23563;SDS011;11960;45.444;11.078;2022-08-01T19:59:52;4.00;;;3.00;;
23563;SDS011;11960;45.444;11.078;2022-08-01T20:01:59;4.00;;;3.00;;
23563;SDS011;11960;45.444;11.078;2022-08-01T20:04:14;4.00;;;4.00;;
23563;SDS011;11960;45.444;11.078;2022-08-01T20:06:19;2.60;;;2.60;;
23563;SDS011;11960;45.444;11.078;2022-08-01T20:08:25;4.00;;;3.00;;
23563;SDS011;11960;45.444;11.078;2022-08-01T20:10:29;3.80;;;3.80;;
23563;SDS011;11960;45.444;11.078;2022-08-01T20:12:33;3.00;;;3.00;;
23563;SDS011;11960;45.444;11.078;2022-08-01T20:14:37;3.00;;;3.00;;
23563;SDS011;11960;45.444;11.078;2022-08-01T20:16:41;2.50;;;2.50;;
23563;SDS011;11960;45.444;11.078;2022-08-01T20:18:47;4.75;;;4.25;;
23563;SDS011;11960;45.444;11.078;2022-08-01T20:20:51;3.00;;;3.00;;
23563;SDS011;11960;45.444;11.078;2022-08-01T20:25:31;3.00;;;3.00;;
23563;SDS011;11960;45.444;11.078;2022-08-01T20:27:41;2.50;;;2.50;;
23563;SDS011;11960;45.444;11.078;2022-08-01T20:29:46;4.00;;;4.00;;
23563;SDS011;11960;45.444;11.078;2022-08-01T20:31:56;2.40;;;2.40;;
23563;SDS011;11960;45.444;11.078;2022-08-01T20:34:06;3.20;;;3.20;;
23563;SDS011;11960;45.444;11.078;2022-08-01T20:36:22;2.00;;;2.00;;
23563;SDS011;11960;45.444;11.078;2022-08-01T20:38:26;4.20;;;4.20;;
23563;SDS011;11960;45.444;11.078;2022-08-01T20:40:33;2.50;;;2.50;;
23563;SDS011;11960;45.444;11.078;2022-08-01T20:42:37;3.40;;;3.40;;
23563;SDS011;11960;45.444;11.078;2022-08-01T20:44:40;2.50;;;2.50;;
23563;SDS011;11960;45.444;11.078;2022-08-01T20:46:44;4.00;;;3.60;;
23563;SDS011;11960;45.444;11.078;2022-08-01T20:48:56;2.00;;;2.00;;
23563;SDS011;11960;45.444;11.078;2022-08-01T20:51:00;5.00;;;5.00;;
23563;SDS011;11960;45.444;11.078;2022-08-01T20:53:22;5.00;;;5.00;;
23563;SDS011;11960;45.444;11.078;2022-08-01T20:55:25;2.50;;;2.50;;
23563;SDS011;11960;45.444;11.078;2022-08-01T20:57:34;4.20;;;4.20;;
23563;SDS011;11960;45.444;11.078;2022-08-01T20:59:46;3.00;;;3.00;;
23563;SDS011;11960;45.444;11.078;2022-08-01T21:04:36;3.80;;;3.20;;
23563;SDS011;11960;45.444;11.078;2022-08-01T21:07:17;4.20;;;4.20;;
23563;SDS011;11960;45.444;11.078;2022-08-01T21:09:39;4.25;;;3.25;;
23563;SDS011;11960;45.444;11.078;2022-08-01T21:11:53;3.50;;;3.50;;
23563;SDS011;11960;45.444;11.078;2022-08-01T21:14:07;3.25;;;3.25;;
23563;SDS011;11960;45.444;11.078;2022-08-01T21:16:14;3.80;;;3.60;;
23563;SDS011;11960;45.444;11.078;2022-08-01T21:18:30;3.00;;;3.00;;
23563;SDS011;11960;45.444;11.078;2022-08-01T21:20:36;2.50;;;2.50;;
23563;SDS011;11960;45.444;11.078;2022-08-01T21:24:55;4.00;;;4.00;;
23563;SDS011;11960;45.444;11.078;2022-08-01T21:27:08;2.40;;;2.40;;
23563;SDS011;11960;45.444;11.078;2022-08-01T21:29:12;2.00;;;2.00;;
23563;SDS011;11960;45.444;11.078;2022-08-01T21:31:17;3.00;;;2.50;;
23563;SDS011;11960;45.444;11.078;2022-08-01T21:33:33;3.75;;;3.75;;
23563;SDS011;11960;45.444;11.078;2022-08-01T21:35:59;3.00;;;3.00;;
23563;SDS011;11960;45.444;11.078;2022-08-01T21:38:07;2.40;;;2.40;;
23563;SDS011;11960;45.444;11.078;2022-08-01T21:42:42;3.00;;;3.00;;
23563;SDS011;11960;45.444;11.078;2022-08-01T21:44:48;3.00;;;3.00;;
23563;SDS011;11960;45.444;11.078;2022-08-01T21:46:50;2.75;;;2.75;;
23563;SDS011;11960;45.444;11.078;2022-08-01T21:48:53;4.00;;;3.00;;
23563;SDS011;11960;45.444;11.078;2022-08-01T21:50:57;2.25;;;2.25;;
23563;SDS011;11960;45.444;11.078;2022-08-01T21:56:10;1.50;;;1.25;;
23563;SDS011;11960;45.444;11.078;2022-08-01T21:58:50;2.50;;;2.25;;
23563;SDS011;11960;45.444;11.078;2022-08-01T22:01:06;3.25;;;3.25;;
23563;SDS011;11960;45.444;11.078;2022-08-01T22:03:24;3.80;;;3.80;;
23563;SDS011;11960;45.444;11.078;2022-08-01T22:05:31;3.00;;;3.00;;
23563;SDS011;11960;45.444;11.078;2022-08-01T22:07:52;4.00;;;4.00;;
23563;SDS011;11960;45.444;11.078;2022-08-01T22:10:06;3.00;;;3.00;;
23563;SDS011;11960;45.444;11.078;2022-08-01T22:12:09;2.50;;;2.50;;
23563;SDS011;11960;45.444;11.078;2022-08-01T22:14:25;3.00;;;3.00;;
23563;SDS011;11960;45.444;11.078;2022-08-01T22:16:30;4.00;;;4.00;;
23563;SDS011;11960;45.444;11.078;2022-08-01T22:18:34;2.50;;;2.50;;
23563;SDS011;11960;45.444;11.078;2022-08-01T22:20:37;4.00;;;4.00;;
23563;SDS011;11960;45.444;11.078;2022-08-01T22:22:41;2.20;;;2.20;;
23563;SDS011;11960;45.444;11.078;2022-08-01T22:24:53;3.80;;;3.80;;
23563;SDS011;11960;45.444;11.078;2022-08-01T22:26:58;5.00;;;4.00;;
23563;SDS011;11960;45.444;11.078;2022-08-01T22:29:44;4.00;;;4.00;;
23563;SDS011;11960;45.444;11.078;2022-08-01T22:31:47;4.50;;;3.00;;
23563;SDS011;11960;45.444;11.078;2022-08-01T22:33:52;4.00;;;4.00;;
